KHOU/HOU METAR and TAF weather

Enter ICAO airport designator
Station Type Date Time Source
KHOU METAR 2021/04/13 07:53 UTC NOAA

KHOU 130753Z 14009KT 10SM OVC011 24/21 A2984 RMK AO2 SLP110 T02440206


Station Type Date Time Source
KHOU Decoded METAR 2021/04/13 07:53 UTC NOAA

HOUSTON HOBBY AIRPORT, TX, United States (KHOU) 29-38N 095-17W 36M
Apr 13, 2021 - 03:53 AM EDT / 2021.04.13 0753 UTC
Wind: from the SE (140 degrees) at 10 MPH (9 KT):0
Visibility: 10 mile(s):0
Sky conditions: overcast
Temperature: 75.9 F (24.4 C)
Dew Point: 69.1 F (20.6 C)
Relative Humidity: 79%
Pressure (altimeter): 29.84 in. Hg (1010 hPa)
ob: KHOU 130753Z 14009KT 10SM OVC011 24/21 A2984 RMK AO2 SLP110 T02440206
cycle: 8

Station Type Date Time Source
KHOU TAF 2021/04/13 06:24 UTC NOAA

TAF KHOU 130521Z 1306/1406 11008KT P6SM BKN015 BKN025 OVC045
FM130800 11007KT P6SM VCSH OVC013
FM131700 12008KT P6SM VCSH BKN023
FM131900 12008KT P6SM VCTS SCT026 BKN035CB
FM140100 13007KT P6SM VCSH SCT025
FM140300 12007KT P6SM VCSH SCT010 OVC017

Example: see airport list